Time;durP1;ratioP1;P1;durP2;ratioP2;P2;SDS_P1;SDS_P2;PMS_P1;PMS_P2;Temp;Humidity;BMP_temperature;BMP_pressure;BME280_temperature;BME280_humidity;BME280_pressure;Samples;Min_cycle;Max_cycle;Signal;HPM_P1;HPM_P2
2022/05/24 00:03:10;;;;;;;;;;;14.80;99.90;;;;;;8401759;28;19927;-75
2022/05/24 00:07:12;;;;;;;;;;;14.70;99.90;;;;;;8394166;28;19931;-75
2022/05/24 00:11:14;;;;;;;;;;;14.80;99.90;;;;;;8387400;28;19928;-75
2022/05/24 00:15:19;;;;;;;;;;;14.80;99.90;;;;;;8391343;28;20076;-75
2022/05/24 00:19:21;;;;;;;;;;;14.80;99.90;;;;;;8377056;28;20263;-75
2022/05/24 00:23:23;;;;;;;;;;;14.80;99.90;;;;;;8411391;28;19924;-75
2022/05/24 00:27:25;;;;;;;;;;;14.80;99.90;;;;;;8386657;28;19924;-75
2022/05/24 00:31:26;;;;;;;;;;;14.70;99.90;;;;;;8393936;28;19927;-75
2022/05/24 00:35:28;;;;;;;;;;;14.70;99.90;;;;;;8388885;28;19927;-75
2022/05/24 00:39:30;;;;;;;;;;;14.70;99.90;;;;;;8402422;28;19921;-75
2022/05/24 00:43:35;;;;;;;;;;;14.70;99.90;;;;;;8380101;28;19920;-76
2022/05/24 00:47:39;;;;;;;;;;;14.70;99.90;;;;;;8405240;28;19920;-76
2022/05/24 00:51:47;;;;;;;;;;;14.70;99.90;;;;;;8394875;28;19927;-76
2022/05/24 00:55:53;;;;;;;;;;;14.70;99.90;;;;;;8399053;28;19920;-76
2022/05/24 01:00:11;;;;;;;;;;;14.70;99.90;;;;;;8386486;28;19947;-76
2022/05/24 01:04:14;;;;;;;;;;;14.70;99.90;;;;;;8389791;28;19920;-75
2022/05/24 01:08:16;;;;;;;;;;;14.70;99.90;;;;;;8386445;28;20265;-76
2022/05/24 01:12:23;;;;;;;;;;;14.70;99.90;;;;;;8408308;28;20368;-75
2022/05/24 01:16:25;;;;;;;;;;;14.70;99.90;;;;;;8393628;28;19928;-75
2022/05/24 01:20:27;;;;;;;;;;;14.60;99.90;;;;;;8389316;28;19920;-76
2022/05/24 01:24:33;;;;;;;;;;;14.50;99.90;;;;;;8389373;28;20430;-75
2022/05/24 01:28:40;;;;;;;;;;;14.50;99.90;;;;;;8391857;28;20383;-76
2022/05/24 01:37:02;;;;;;;;;;;14.30;99.90;;;;;;8395090;28;19920;-75
2022/05/24 01:41:04;;;;;;;;;;;14.20;99.90;;;;;;8393945;28;19928;-75
2022/05/24 01:45:09;;;;;;;;;;;14.20;99.90;;;;;;8392571;28;19976;-75
2022/05/24 01:49:14;;;;;;;;;;;14.10;99.90;;;;;;8390538;28;19921;-75
2022/05/24 01:53:18;;;;;;;;;;;14.00;99.90;;;;;;8401876;28;19924;-75
2022/05/24 01:57:52;;;;;;;;;;;13.90;99.90;;;;;;8398019;28;20389;-75
2022/05/24 02:01:55;;;;;;;;;;;13.90;99.90;;;;;;8376072;28;20376;-74
2022/05/24 02:05:58;;;;;;;;;;;13.80;99.90;;;;;;8404872;28;20417;-74
2022/05/24 02:10:00;;;;;;;;;;;13.80;99.90;;;;;;8385125;28;19935;-74
2022/05/24 02:14:11;;;;;;;;;;;13.80;99.90;;;;;;8401235;28;20291;-75
2022/05/24 02:18:17;;;;;;;;;;;13.70;99.90;;;;;;8429136;27;19919;-76
2022/05/24 02:22:20;;;;;;;;;;;13.70;99.90;;;;;;8407768;28;19951;-75
2022/05/24 02:26:23;;;;;;;;;;;13.70;99.90;;;;;;8387522;28;19920;-75
2022/05/24 02:30:26;;;;;;;;;;;13.70;99.90;;;;;;8419578;27;19928;-75
2022/05/24 02:34:27;;;;;;;;;;;13.70;99.90;;;;;;8405640;28;20208;-76
2022/05/24 02:38:29;;;;;;;;;;;13.70;99.90;;;;;;8406931;28;19920;-76
2022/05/24 02:42:32;;;;;;;;;;;13.60;99.90;;;;;;8400888;28;19931;-75
2022/05/24 02:46:34;;;;;;;;;;;13.50;99.90;;;;;;8403601;28;19927;-75
2022/05/24 02:50:36;;;;;;;;;;;13.50;99.90;;;;;;8383306;28;19920;-76
2022/05/24 02:54:37;;;;;;;;;;;13.50;99.90;;;;;;8407615;28;19931;-76
2022/05/24 02:58:40;;;;;;;;;;;13.50;99.90;;;;;;8407094;28;19924;-76
2022/05/24 03:02:41;;;;;;;;;;;13.50;99.90;;;;;;8388602;28;19924;-75
2022/05/24 03:11:05;;;;;;;;;;;13.50;99.90;;;;;;8397002;28;19943;-76
2022/05/24 03:15:07;;;;;;;;;;;13.50;99.90;;;;;;8403085;28;20288;-75
2022/05/24 03:19:09;;;;;;;;;;;13.50;99.90;;;;;;8401504;28;20371;-76
2022/05/24 03:23:11;;;;;;;;;;;13.50;99.90;;;;;;8392844;28;19928;-75
2022/05/24 03:27:13;;;;;;;;;;;13.40;99.90;;;;;;8396726;28;19920;-75
2022/05/24 03:31:16;;;;;;;;;;;13.40;99.90;;;;;;8387808;28;19925;-75
2022/05/24 03:40:21;;;;;;;;;;;13.50;99.90;;;;;;8382724;28;19966;-74
2022/05/24 03:44:23;;;;;;;;;;;13.40;99.90;;;;;;8387246;28;20368;-75
2022/05/24 03:48:25;;;;;;;;;;;13.40;99.90;;;;;;8389470;28;19951;-75
2022/05/24 03:52:26;;;;;;;;;;;13.40;99.90;;;;;;8403807;28;20217;-75
2022/05/24 03:56:29;;;;;;;;;;;13.30;99.90;;;;;;8403626;28;19967;-75
2022/05/24 04:00:32;;;;;;;;;;;13.30;99.90;;;;;;8387325;28;20433;-75
2022/05/24 04:04:34;;;;;;;;;;;13.30;99.90;;;;;;8412523;28;19919;-74
2022/05/24 04:08:35;;;;;;;;;;;13.30;99.90;;;;;;8387722;28;20081;-74
2022/05/24 04:12:37;;;;;;;;;;;13.30;99.90;;;;;;8381649;28;20368;-75
2022/05/24 04:16:39;;;;;;;;;;;13.30;99.90;;;;;;8399173;28;20402;-75
2022/05/24 04:25:23;;;;;;;;;;;13.30;99.90;;;;;;8386764;28;20307;-74
2022/05/24 04:29:25;;;;;;;;;;;13.30;99.90;;;;;;8394918;28;20008;-75
2022/05/24 04:33:26;;;;;;;;;;;13.30;99.90;;;;;;8392476;28;19920;-75
2022/05/24 04:37:28;;;;;;;;;;;13.30;99.90;;;;;;8392024;28;19924;-75
2022/05/24 04:45:59;;;;;;;;;;;13.30;99.90;;;;;;8397506;28;19943;-75
2022/05/24 04:50:03;;;;;;;;;;;13.20;99.90;;;;;;8390391;28;19931;-75
2022/05/24 04:54:05;;;;;;;;;;;13.20;99.90;;;;;;8419915;27;19924;-74
2022/05/24 04:58:09;;;;;;;;;;;13.20;99.90;;;;;;8386195;28;19954;-74
2022/05/24 05:02:11;;;;;;;;;;;13.20;99.90;;;;;;8385891;28;19978;-74
2022/05/24 05:06:13;;;;;;;;;;;13.20;99.90;;;;;;8389654;28;19927;-75
2022/05/24 05:10:15;;;;;;;;;;;13.20;99.90;;;;;;8393377;28;19931;-74
2022/05/24 05:14:17;;;;;;;;;;;13.20;99.90;;;;;;8397982;28;19931;-74
2022/05/24 05:18:20;;;;;;;;;;;13.20;99.90;;;;;;8401508;28;19932;-74
2022/05/24 05:22:22;;;;;;;;;;;13.20;99.90;;;;;;8404968;28;19928;-75
2022/05/24 05:26:24;;;;;;;;;;;13.20;99.90;;;;;;8404674;28;19921;-74
2022/05/24 05:34:47;;;;;;;;;;;13.20;99.90;;;;;;8404705;28;19924;-73
2022/05/24 05:38:49;;;;;;;;;;;13.10;99.90;;;;;;8407438;28;20265;-75
2022/05/24 05:43:22;;;;;;;;;;;13.10;99.90;;;;;;8399784;28;19927;-73
2022/05/24 05:47:24;;;;;;;;;;;13.10;99.90;;;;;;8390641;28;19927;-75
2022/05/24 05:51:25;;;;;;;;;;;13.10;99.90;;;;;;8410981;28;19924;-74
2022/05/24 05:55:27;;;;;;;;;;;13.10;99.90;;;;;;8399295;28;19920;-74
2022/05/24 05:59:29;;;;;;;;;;;13.10;99.90;;;;;;8414403;28;19927;-75
2022/05/24 06:13:36;;;;;;;;;;;13.20;99.90;;;;;;8394811;28;20090;-74
2022/05/24 06:17:42;;;;;;;;;;;13.10;99.90;;;;;;8406216;28;19924;-72
2022/05/24 06:21:44;;;;;;;;;;;13.20;99.90;;;;;;8405051;28;19920;-74
2022/05/24 06:25:45;;;;;;;;;;;13.10;99.90;;;;;;8433225;28;20307;-73
2022/05/24 06:29:47;;;;;;;;;;;13.10;99.90;;;;;;8421008;28;19920;-74
2022/05/24 06:33:49;;;;;;;;;;;13.10;99.90;;;;;;8428286;28;19931;-74
2022/05/24 06:37:51;;;;;;;;;;;13.10;99.90;;;;;;8410972;28;20279;-74
2022/05/24 06:41:52;;;;;;;;;;;13.20;99.90;;;;;;8413032;28;19931;-74
2022/05/24 06:45:57;;;;;;;;;;;13.20;99.90;;;;;;8434098;27;20256;-74
2022/05/24 06:49:59;;;;;;;;;;;13.20;99.90;;;;;;8413080;28;19963;-74
2022/05/24 06:54:00;;;;;;;;;;;13.20;99.90;;;;;;8427026;28;19927;-74
2022/05/24 06:58:02;;;;;;;;;;;13.30;99.90;;;;;;8429018;28;19927;-75
2022/05/24 07:06:24;;;;;;;;;;;13.40;99.90;;;;;;8414381;28;19920;-74
2022/05/24 07:10:26;;;;;;;;;;;13.50;99.90;;;;;;8402945;28;19924;-74
2022/05/24 07:14:28;;;;;;;;;;;13.60;99.90;;;;;;8409424;28;19931;-74
2022/05/24 07:18:30;;;;;;;;;;;13.70;99.90;;;;;;8409247;28;19940;-74
2022/05/24 07:22:31;;;;;;;;;;;13.70;99.90;;;;;;8410118;28;19928;-74
2022/05/24 07:26:33;;;;;;;;;;;13.60;99.90;;;;;;8410346;28;19929;-74
2022/05/24 07:30:53;;;;;;;;;;;13.70;99.90;;;;;;8403192;28;20360;-73
2022/05/24 07:34:56;;;;;;;;;;;13.80;99.90;;;;;;8401170;28;20269;-74
2022/05/24 07:38:58;;;;;;;;;;;13.90;99.90;;;;;;8411051;28;19924;-74
2022/05/24 07:47:21;;;;;;;;;;;13.90;99.90;;;;;;8401627;28;19921;-74
2022/05/24 07:51:22;;;;;;;;;;;13.90;99.90;;;;;;8408931;28;19927;-74
2022/05/24 07:55:28;;;;;;;;;;;13.90;99.90;;;;;;8421897;28;20407;-74
2022/05/24 07:59:30;;;;;;;;;;;14.10;99.90;;;;;;8409687;28;20282;-74
2022/05/24 08:03:32;;;;;;;;;;;14.30;99.90;;;;;;8418771;28;20015;-74
2022/05/24 08:07:33;;;;;;;;;;;14.50;99.90;;;;;;8408041;28;19928;-74
2022/05/24 08:11:35;;;;;;;;;;;14.50;99.90;;;;;;8360163;28;20016;-74
2022/05/24 08:15:37;;;;;;;;;;;14.60;99.90;;;;;;8370280;28;19923;-73
2022/05/24 08:19:39;;;;;;;;;;;14.70;99.90;;;;;;8363134;28;19921;-73
2022/05/24 08:23:40;;;;;;;;;;;14.70;99.90;;;;;;8361004;28;20023;-74
2022/05/24 08:27:43;;;;;;;;;;;14.60;99.90;;;;;;8359172;28;19921;-73
2022/05/24 08:31:44;;;;;;;;;;;14.50;99.90;;;;;;8394973;27;19927;-73
2022/05/24 08:35:46;;;;;;;;;;;14.50;99.90;;;;;;8378120;28;19932;-74
2022/05/24 08:39:47;;;;;;;;;;;14.60;99.90;;;;;;8364665;28;19924;-74
2022/05/24 08:43:50;;;;;;;;;;;14.60;99.90;;;;;;8363477;28;19937;-74
2022/05/24 08:52:14;;;;;;;;;;;14.40;99.90;;;;;;8361051;28;19921;-74
2022/05/24 08:56:23;;;;;;;;;;;13.80;99.90;;;;;;8362893;28;20327;-75
2022/05/24 09:00:36;;;;;;;;;;;13.20;99.90;;;;;;8372549;28;19924;-75
2022/05/24 09:04:37;;;;;;;;;;;12.80;99.90;;;;;;8370450;28;19924;-75
2022/05/24 09:08:58;;;;;;;;;;;12.50;99.90;;;;;;8363248;28;19920;-75
2022/05/24 09:13:01;;;;;;;;;;;12.40;99.90;;;;;;8381576;28;19921;-75
2022/05/24 09:17:10;;;;;;;;;;;12.40;99.90;;;;;;8362491;28;19928;-74
2022/05/24 09:21:18;;;;;;;;;;;12.50;99.90;;;;;;8362865;28;20300;-74
2022/05/24 09:25:20;;;;;;;;;;;12.80;99.90;;;;;;8362696;28;20004;-75
2022/05/24 09:29:21;;;;;;;;;;;13.10;99.90;;;;;;8361870;28;19943;-75
2022/05/24 09:33:25;;;;;;;;;;;13.20;99.90;;;;;;8403622;28;19951;-74
2022/05/24 09:37:27;;;;;;;;;;;13.00;99.90;;;;;;8376787;28;19935;-75
2022/05/24 09:41:28;;;;;;;;;;;12.70;99.90;;;;;;8377117;28;19920;-75
2022/05/24 09:45:36;;;;;;;;;;;12.40;99.90;;;;;;8376195;28;19928;-76
2022/05/24 09:49:38;;;;;;;;;;;12.40;99.90;;;;;;8377535;28;19964;-75
2022/05/24 09:53:48;;;;;;;;;;;12.50;99.90;;;;;;8378034;28;19921;-76
2022/05/24 09:57:49;;;;;;;;;;;12.60;99.90;;;;;;8378704;28;19932;-75
2022/05/24 10:01:51;;;;;;;;;;;12.80;99.90;;;;;;8377704;28;19933;-75
2022/05/24 10:06:19;;;;;;;;;;;13.00;99.90;;;;;;8385146;28;20295;-76
2022/05/24 10:10:24;;;;;;;;;;;13.00;99.90;;;;;;8383523;28;19924;-76
2022/05/24 10:14:38;;;;;;;;;;;13.00;99.90;;;;;;8382174;28;19932;-77
2022/05/24 10:18:59;;;;;;;;;;;13.00;99.90;;;;;;8382037;28;19983;-74
2022/05/24 10:23:04;;;;;;;;;;;12.80;99.90;;;;;;8385232;28;19978;-76
2022/05/24 10:27:24;;;;;;;;;;;12.30;99.90;;;;;;8384473;28;20367;-75
2022/05/24 10:31:25;;;;;;;;;;;12.00;99.90;;;;;;8377018;28;19925;-75
2022/05/24 10:40:15;;;;;;;;;;;12.10;99.90;;;;;;8380864;28;19932;-75
2022/05/24 10:44:21;;;;;;;;;;;12.00;99.90;;;;;;8407328;27;20203;-75
2022/05/24 10:48:22;;;;;;;;;;;12.10;99.90;;;;;;8371162;28;19925;-75
2022/05/24 10:52:37;;;;;;;;;;;12.10;99.90;;;;;;8370636;28;20372;-76
2022/05/24 10:56:53;;;;;;;;;;;12.30;99.90;;;;;;8371821;28;19931;-76
2022/05/24 11:01:08;;;;;;;;;;;12.40;99.90;;;;;;8367906;28;20379;-75
2022/05/24 11:05:22;;;;;;;;;;;12.60;99.90;;;;;;8366653;28;19925;-75
2022/05/24 11:09:25;;;;;;;;;;;12.60;99.90;;;;;;8377862;28;19928;-75
2022/05/24 11:13:35;;;;;;;;;;;12.60;99.90;;;;;;8383546;28;19928;-74
2022/05/24 11:17:37;;;;;;;;;;;12.70;99.90;;;;;;8372137;28;19936;-75
2022/05/24 11:21:56;;;;;;;;;;;13.00;99.90;;;;;;8390777;28;19935;-75
2022/05/24 11:26:01;;;;;;;;;;;13.00;99.90;;;;;;8379499;28;19929;-74
2022/05/24 11:30:09;;;;;;;;;;;12.90;99.90;;;;;;8373119;28;19943;-75
2022/05/24 11:34:12;;;;;;;;;;;12.90;99.90;;;;;;8365003;28;19944;-75
2022/05/24 11:38:13;;;;;;;;;;;12.90;99.90;;;;;;8362932;28;20337;-75
2022/05/24 11:42:22;;;;;;;;;;;13.00;99.90;;;;;;8397836;27;19933;-75
2022/05/24 11:46:39;;;;;;;;;;;13.10;99.90;;;;;;8370781;28;19923;-75
2022/05/24 11:50:43;;;;;;;;;;;13.30;99.90;;;;;;8366277;28;19983;-74
2022/05/24 11:54:47;;;;;;;;;;;13.60;99.90;;;;;;8374764;28;19951;-74
2022/05/24 11:58:50;;;;;;;;;;;13.90;99.90;;;;;;8378675;28;19925;-74
2022/05/24 12:11:36;;;;;;;;;;;14.10;99.90;;;;;;8365431;28;20306;-75
2022/05/24 12:15:40;;;;;;;;;;;14.10;99.90;;;;;;8393601;28;20273;-75
2022/05/24 12:19:44;;;;;;;;;;;14.20;99.90;;;;;;8374736;28;19920;-76
2022/05/24 12:23:46;;;;;;;;;;;14.20;99.90;;;;;;8364952;28;19921;-75
2022/05/24 12:27:49;;;;;;;;;;;14.40;99.90;;;;;;8373798;28;19935;-75
2022/05/24 12:31:51;;;;;;;;;;;14.60;99.90;;;;;;8367460;28;20389;-75
2022/05/24 12:36:05;;;;;;;;;;;14.60;99.90;;;;;;8393126;28;19929;-75
2022/05/24 12:40:20;;;;;;;;;;;14.60;99.90;;;;;;8370389;28;19920;-76
2022/05/24 12:44:22;;;;;;;;;;;14.60;99.90;;;;;;8373575;28;19948;-75
2022/05/24 12:48:24;;;;;;;;;;;14.70;99.90;;;;;;8366444;28;19932;-77
2022/05/24 12:52:25;;;;;;;;;;;14.80;99.90;;;;;;8402689;28;19928;-75
2022/05/24 12:56:27;;;;;;;;;;;15.00;99.90;;;;;;8372492;28;19924;-75
2022/05/24 13:00:29;;;;;;;;;;;15.30;99.90;;;;;;8376867;28;20391;-75
2022/05/24 13:04:30;;;;;;;;;;;15.40;99.90;;;;;;8380186;28;19956;-76
2022/05/24 13:08:32;;;;;;;;;;;15.40;99.90;;;;;;8402299;28;19927;-76
2022/05/24 13:12:34;;;;;;;;;;;15.50;99.90;;;;;;8365381;28;19920;-75
2022/05/24 13:16:37;;;;;;;;;;;15.70;99.90;;;;;;8368749;28;19924;-75
2022/05/24 13:20:39;;;;;;;;;;;16.00;99.90;;;;;;8376062;28;19920;-75
2022/05/24 13:24:47;;;;;;;;;;;16.10;99.90;;;;;;8363250;28;19921;-76
2022/05/24 13:28:52;;;;;;;;;;;16.00;99.90;;;;;;8368427;28;19924;-74
2022/05/24 13:37:16;;;;;;;;;;;16.30;99.90;;;;;;8368097;28;19929;-74
2022/05/24 13:41:30;;;;;;;;;;;16.50;99.90;;;;;;8374155;28;19931;-74
2022/05/24 13:45:38;;;;;;;;;;;16.60;99.90;;;;;;8384261;28;19974;-75
2022/05/24 13:49:44;;;;;;;;;;;16.60;99.90;;;;;;8399261;27;19932;-74
2022/05/24 13:53:46;;;;;;;;;;;16.50;99.90;;;;;;8382855;28;20367;-74
2022/05/24 13:57:58;;;;;;;;;;;16.40;99.90;;;;;;8384729;28;19927;-75
2022/05/24 14:02:12;;;;;;;;;;;16.20;99.90;;;;;;8381835;28;19920;-74
2022/05/24 14:06:21;;;;;;;;;;;16.10;99.90;;;;;;8367311;28;19928;-74
2022/05/24 14:10:22;;;;;;;;;;;16.10;99.90;;;;;;8380275;28;19935;-75
2022/05/24 14:14:25;;;;;;;;;;;16.10;99.90;;;;;;8374214;28;19963;-75
2022/05/24 14:18:36;;;;;;;;;;;16.00;99.90;;;;;;8383567;28;19920;-74
2022/05/24 14:22:38;;;;;;;;;;;16.00;99.90;;;;;;8382759;28;19928;-74
2022/05/24 14:26:41;;;;;;;;;;;15.90;99.90;;;;;;8365875;28;19920;-74
2022/05/24 14:30:44;;;;;;;;;;;15.80;99.90;;;;;;8369674;28;19921;-74
2022/05/24 14:34:46;;;;;;;;;;;15.80;99.90;;;;;;8365169;28;19920;-75
2022/05/24 14:38:47;;;;;;;;;;;16.00;99.90;;;;;;8367743;28;20076;-74
2022/05/24 14:42:50;;;;;;;;;;;16.00;99.90;;;;;;8368079;28;19921;-74
2022/05/24 14:46:52;;;;;;;;;;;15.90;99.90;;;;;;8379335;28;19924;-74
2022/05/24 14:50:54;;;;;;;;;;;15.80;99.90;;;;;;8378172;28;19921;-74
2022/05/24 14:54:57;;;;;;;;;;;15.80;99.90;;;;;;8398857;27;19928;-74
2022/05/24 14:58:58;;;;;;;;;;;15.70;99.90;;;;;;8395250;27;19936;-74
2022/05/24 15:03:00;;;;;;;;;;;15.70;99.90;;;;;;8372045;28;19974;-74
2022/05/24 15:15:47;;;;;;;;;;;15.60;99.90;;;;;;8367732;28;19928;-74
2022/05/24 15:19:49;;;;;;;;;;;15.80;99.90;;;;;;8378282;28;19932;-75
2022/05/24 15:23:53;;;;;;;;;;;16.00;99.90;;;;;;8366067;28;19920;-74
2022/05/24 15:27:55;;;;;;;;;;;16.30;99.90;;;;;;8365932;28;19928;-75
2022/05/24 15:31:57;;;;;;;;;;;16.40;99.90;;;;;;8365820;28;19929;-75
2022/05/24 15:35:58;;;;;;;;;;;16.50;99.90;;;;;;8367794;28;19935;-75
2022/05/24 15:40:00;;;;;;;;;;;16.60;99.90;;;;;;8368213;28;19925;-75
2022/05/24 15:44:02;;;;;;;;;;;16.80;99.90;;;;;;8363916;28;19928;-74
2022/05/24 15:48:04;;;;;;;;;;;17.00;99.90;;;;;;8397841;27;19931;-75
2022/05/24 15:52:07;;;;;;;;;;;17.30;99.90;;;;;;8363846;28;19928;-76
2022/05/24 15:56:10;;;;;;;;;;;17.30;99.90;;;;;;8379056;28;19951;-75
2022/05/24 16:00:13;;;;;;;;;;;17.10;99.90;;;;;;8358307;28;19932;-75
2022/05/24 16:10:02;;;;;;;;;;;17.20;99.90;;;;;;8362239;28;20443;-75
2022/05/24 16:13:04;;;;;;;;;;;17.30;99.90;;;;;;8363003;28;19920;-75
2022/05/24 16:17:09;;;;;;;;;;;17.20;99.90;;;;;;8362659;28;19921;-75
2022/05/24 16:21:12;;;;;;;;;;;17.20;99.90;;;;;;8375932;28;20260;-75
2022/05/24 16:25:16;;;;;;;;;;;17.50;99.90;;;;;;8362356;28;19921;-75
2022/05/24 16:29:18;;;;;;;2.67;0.93;;;17.90;99.90;;;;;;8352426;28;19931;-74
2022/05/24 16:33:20;;;;;;;2.60;1.10;;;18.40;99.90;;;;;;8353182;28;20405;-74
2022/05/24 16:37:42;;;;;;;2.95;1.10;;;18.70;99.90;;;;;;8360022;28;20418;-75
2022/05/24 16:41:45;;;;;;;1.38;0.88;;;18.80;99.90;;;;;;8359531;28;20060;-74
2022/05/24 16:45:47;;;;;;;2.03;0.90;;;18.40;99.90;;;;;;8360236;28;20052;-73
2022/05/24 16:49:49;;;;;;;1.40;0.90;;;17.80;99.90;;;;;;8356330;28;20127;-74
2022/05/24 16:53:52;;;;;;;2.75;0.98;;;17.40;99.90;;;;;;8361871;28;20063;-74
2022/05/24 17:02:15;;;;;;;2.70;0.90;;;16.80;99.90;;;;;;8373116;28;20507;-75
2022/05/24 17:06:18;;;;;;;2.30;0.90;;;16.60;99.90;;;;;;8362730;28;20052;-75
2022/05/24 17:10:21;;;;;;;2.30;1.00;;;16.40;99.90;;;;;;8372978;28;20502;-75
2022/05/24 17:14:23;;;;;;;;;;;16.20;99.90;;;;;;8363544;28;20048;-75
2022/05/24 17:18:24;;;;;;;;;;;16.10;99.90;;;;;;8360271;28;19921;-75
2022/05/24 17:22:29;;;;;;;;;;;15.90;99.90;;;;;;8378015;28;19920;-75
2022/05/24 17:26:31;;;;;;;;;;;15.80;99.90;;;;;;8361489;28;19943;-75
2022/05/24 17:30:33;;;;;;;;;;;15.70;99.90;;;;;;8382528;28;19920;-75
2022/05/24 17:34:35;;;;;;;;;;;15.70;99.90;;;;;;8363936;28;19928;-75
2022/05/24 17:38:39;;;;;;;;;;;15.80;99.90;;;;;;8363953;28;19979;-75
2022/05/24 17:42:42;;;;;;;;;;;16.00;99.90;;;;;;8360068;28;19944;-76
2022/05/24 17:46:44;;;;;;;;;;;16.20;99.90;;;;;;8366124;28;19928;-75
2022/05/24 17:51:02;;;;;;;;;;;16.30;99.90;;;;;;8383969;28;20321;-75
2022/05/24 17:55:03;;;;;;;;;;;16.30;99.90;;;;;;8366815;28;20248;-75
2022/05/24 17:59:05;;;;;;;;;;;16.20;99.90;;;;;;8364552;28;20411;-75
2022/05/24 18:03:09;;;;;;;;;;;16.20;99.90;;;;;;8360002;28;19921;-74
2022/05/24 18:07:12;;;;;;;;;;;16.20;99.90;;;;;;8365565;28;19932;-75
2022/05/24 18:11:14;;;;;;;;;;;16.20;99.90;;;;;;8374472;28;19924;-75
2022/05/24 18:15:16;;;;;;;;;;;16.10;99.90;;;;;;8357639;28;19920;-75
2022/05/24 18:19:24;;;;;;;;;;;16.00;99.90;;;;;;8362015;28;19939;-75
2022/05/24 18:23:27;;;;;;;;;;;16.00;99.90;;;;;;8362481;28;19921;-75
2022/05/24 18:36:17;;;;;;;;;;;15.90;99.90;;;;;;8365307;28;19924;-75
2022/05/24 18:40:19;;;;;;;;;;;15.90;99.90;;;;;;8364185;28;19929;-75
2022/05/24 18:44:20;;;;;;;;;;;15.80;99.90;;;;;;8367434;28;20012;-74
2022/05/24 18:48:22;;;;;;;;;;;15.70;99.90;;;;;;8384023;28;20021;-75
2022/05/24 18:52:24;;;;;;;;;;;15.70;99.90;;;;;;8368352;28;19920;-75
2022/05/24 18:56:27;;;;;;;;;;;15.70;99.90;;;;;;8362318;28;19921;-75
2022/05/24 19:00:29;;;;;;;;;;;15.60;99.90;;;;;;8364979;28;19931;-75
2022/05/24 19:04:31;;;;;;;;;;;15.60;99.90;;;;;;8360863;28;19928;-75
2022/05/24 19:08:33;;;;;;;;;;;15.60;99.90;;;;;;8357197;28;19929;-75
2022/05/24 19:12:35;;;;;;;;;;;15.70;99.90;;;;;;8364807;28;19936;-75
2022/05/24 19:16:41;;;;;;;;;;;15.60;99.90;;;;;;8370511;28;20015;-75
2022/05/24 19:20:43;;;;;;;;;;;15.60;99.90;;;;;;8378495;28;19932;-75
2022/05/24 19:24:45;;;;;;;;;;;15.60;99.90;;;;;;8361368;28;19928;-75
2022/05/24 19:28:47;;;;;;;;;;;15.60;99.90;;;;;;8361240;28;20024;-74
2022/05/24 19:32:49;;;;;;;;;;;15.50;99.90;;;;;;8363725;28;19925;-75
2022/05/24 19:36:51;;;;;;;;;;;15.50;99.90;;;;;;8361867;28;19936;-75
2022/05/24 19:45:40;;;;;;;;;;;15.30;99.90;;;;;;8356649;28;19951;-75
2022/05/24 19:49:41;;;;;;;;;;;15.30;99.90;;;;;;8364754;28;20343;-75
2022/05/24 19:53:43;;;;;;;;;;;15.20;99.90;;;;;;8367319;28;19924;-74
2022/05/24 19:57:45;;;;;;;;;;;15.10;99.90;;;;;;8361359;28;19932;-75
2022/05/24 20:01:47;;;;;;;;;;;14.90;99.90;;;;;;8364626;28;20216;-74
2022/05/24 20:05:49;;;;;;;;;;;14.80;99.90;;;;;;8365456;28;20273;-75
2022/05/24 20:09:50;;;;;;;;;;;14.70;99.90;;;;;;8358832;28;20501;-75
2022/05/24 20:13:52;;;;;;;;;;;14.60;99.90;;;;;;8366458;28;19925;-75
2022/05/24 20:17:54;;;;;;;;;;;14.50;99.90;;;;;;8367044;28;20233;-75
2022/05/24 20:21:59;;;;;;;;;;;14.40;99.90;;;;;;8362006;28;20349;-75
2022/05/24 20:26:00;;;;;;;;;;;14.40;99.90;;;;;;8360905;28;19939;-75
2022/05/24 20:30:03;;;;;;;;;;;14.30;99.90;;;;;;8358072;28;19931;-75
2022/05/24 20:34:05;;;;;;;;;;;14.30;99.90;;;;;;8359508;28;19924;-74
2022/05/24 20:38:10;;;;;;;;;;;14.20;99.90;;;;;;8372252;28;19928;-75
2022/05/24 20:42:13;;;;;;;;;;;14.10;99.90;;;;;;8374840;28;19925;-74
2022/05/24 20:46:14;;;;;;;;;;;14.00;99.90;;;;;;8359901;28;19928;-75
2022/05/24 20:50:16;;;;;;;;;;;13.90;99.90;;;;;;8358024;28;19972;-75
2022/05/24 20:54:18;;;;;;;;;;;13.80;99.90;;;;;;8373143;28;19924;-74
2022/05/24 20:58:22;;;;;;;;;;;13.80;99.90;;;;;;8353477;28;19932;-75
2022/05/24 21:02:24;;;;;;;;;;;13.70;99.90;;;;;;8364684;28;20383;-75
2022/05/24 21:06:25;;;;;;;;;;;13.70;99.90;;;;;;8379277;28;19920;-75
2022/05/24 21:10:28;;;;;;;;;;;13.60;99.90;;;;;;8393670;28;19943;-75
2022/05/24 21:14:30;;;;;;;;;;;13.50;99.90;;;;;;8383827;28;19927;-75
2022/05/24 21:18:32;;;;;;;;;;;13.40;99.90;;;;;;8381311;28;19932;-75
2022/05/24 21:22:33;;;;;;;;;;;13.40;99.90;;;;;;8416210;28;19924;-75
2022/05/24 21:30:58;;;;;;;;;;;13.20;99.90;;;;;;8374845;28;19924;-75
2022/05/24 21:34:59;;;;;;;;;;;13.20;99.90;;;;;;8382788;28;19931;-74
2022/05/24 21:39:28;;;;;;;;;;;13.20;99.90;;;;;;8378531;28;19940;-75
2022/05/24 21:43:29;;;;;;;;;;;13.10;99.90;;;;;;8385487;28;19923;-75
2022/05/24 21:47:31;;;;;;;;;;;13.10;99.90;;;;;;8381719;28;19928;-75
2022/05/24 21:51:33;;;;;;;;;;;13.00;99.90;;;;;;8386284;28;19961;-74
2022/05/24 21:55:34;;;;;;;;;;;13.00;99.90;;;;;;8401918;28;19928;-74
2022/05/24 21:59:43;;;;;;;;;;;12.90;99.90;;;;;;8406794;28;19924;-74
2022/05/24 22:03:47;;;;;;;;;;;12.90;99.90;;;;;;8408842;28;20394;-75
2022/05/24 22:07:48;;;;;;;;;;;12.80;99.90;;;;;;8389957;28;19931;-75
2022/05/24 22:11:50;;;;;;;;;;;12.80;99.90;;;;;;8411261;28;19928;-74
2022/05/24 22:15:51;;;;;;;;;;;12.80;99.90;;;;;;8385353;28;19971;-74
2022/05/24 22:19:54;;;;;;;;;;;12.70;99.90;;;;;;8388092;28;19979;-74
2022/05/24 22:23:55;;;;;;;;;;;12.70;99.90;;;;;;8384758;28;19924;-74
2022/05/24 22:27:57;;;;;;;;;;;12.60;99.90;;;;;;8390303;28;20307;-74
2022/05/24 22:32:00;;;;;;;;;;;12.60;99.90;;;;;;8394473;28;19965;-74
2022/05/24 22:36:02;;;;;;;;;;;12.50;99.90;;;;;;8413520;27;19995;-75
2022/05/24 22:40:04;;;;;;;;;;;12.50;99.90;;;;;;8383871;28;19947;-74
2022/05/24 22:44:05;;;;;;;;;;;12.50;99.90;;;;;;8384064;28;20380;-74
2022/05/24 22:48:08;;;;;;;;;;;12.40;99.90;;;;;;8391638;28;19927;-74
2022/05/24 22:52:10;;;;;;;;;;;12.40;99.90;;;;;;8387096;28;19924;-75
2022/05/24 22:56:13;;;;;;;;;;;12.30;99.90;;;;;;8391909;28;19989;-75
2022/05/24 23:00:17;;;;;;;;;;;12.30;99.90;;;;;;8388081;28;19920;-74
2022/05/24 23:04:19;;;;;;;;;;;12.20;99.90;;;;;;8387661;28;19925;-74
2022/05/24 23:08:21;;;;;;;;;;;12.10;99.90;;;;;;8378121;28;19963;-74
2022/05/24 23:12:23;;;;;;;;;;;12.10;99.90;;;;;;8387629;28;19924;-74
2022/05/24 23:16:26;;;;;;;;;;;12.10;99.90;;;;;;8379788;28;19927;-74
2022/05/24 23:20:29;;;;;;;;;;;12.10;99.90;;;;;;8384919;28;20292;-74
2022/05/24 23:24:30;;;;;;;;;;;12.10;99.90;;;;;;8385897;28;20026;-74
2022/05/24 23:28:32;;;;;;;;;;;12.00;99.90;;;;;;8386005;28;19920;-74
2022/05/24 23:32:33;;;;;;;;;;;11.90;99.90;;;;;;8380613;28;19928;-75
2022/05/24 23:36:35;;;;;;;;;;;11.90;99.90;;;;;;8379665;28;20029;-74
2022/05/24 23:40:37;;;;;;;;;;;11.90;99.90;;;;;;8404051;28;20283;-74
2022/05/24 23:44:39;;;;;;;;;;;11.80;99.90;;;;;;8405122;28;19920;-74
2022/05/24 23:48:43;;;;;;;;;;;11.70;99.90;;;;;;8387652;28;19924;-75
2022/05/24 23:52:45;;;;;;;;;;;11.70;99.90;;;;;;8385317;28;19924;-75
2022/05/24 23:56:47;;;;;;;;;;;11.60;99.90;;;;;;8388244;28;20249;-74
